Main page
Satellite images 15-day forecastsClimateMarine weather Cyclones Lightning AirportsFAQ Newsletter About
Weather : Europe Africa North America South America Asia Australia-Oceania Others
Languages Contact

Tunis, Tunisia

Carthage

latitude: 36-50N, longitude: 010-14E, elevation: 3 m


METAR: DTTA 220800Z 18005KT 9999 FEW026 12/09 Q1033 NOSIG
TAF: DTTA 220510Z 2206/2306 28006KT 9999 SCT026 BECMG 2213/2215 36008KT BECMG 2216/2218 VRB03KT

Time: 09:27 (08:27 UTC)

Current weather observation

The report was made 27 minutes ago, at 08:00 UTC
Wind 5 kt from the South
Temperature 12°C
Humidity 82%
Pressure 1033 hPa
Visibility 10 km or more
Few clouds at a height of 2600 ft

Change units

Forecast

The report was made 3 hours and 17 minutes ago, at 05:10 UTC
Forecast valid from 22 at 06 UTC to 23 at 06 UTC
Wind 6 kt from the West
Visibility 10 km or more
Scattered clouds at a height of 2600 ft
Becoming
from 22 at 13 UTC to 22 at 15 UTC
Wind 8 kt from the North
Becoming
from 22 at 16 UTC to 22 at 18 UTC
Wind 3 kt from variable directions
The information on this site is subject to a disclaimer
Weather : Europe Africa North America South America Asia Australia-Oceania Others
Satellite images 15-day forecastsClimateMarine weather Cyclones Lightning AirportsFAQ Languages Contact Newsletter About